KAQR

Atoka Municipal Airport

Atoka, Oklahoma, USA
METAR KAQR 220655Z AUTO 06005KT 10SM BKN009 OVC020 20/20 A3003 RMK AO2 LTG DSNT S
Observed Flight Rules
Sep-22 @ 06:55 UTC (27 minutes ago) Instrument Flight Rules
Wind Visibility Clouds
60° at 5 knots 10 miles
Temperatures Readings
Current 20°C / 68°F
Dewpoint 20°C / 68°F
Humidity 100%
Altimeter 30.03" Hg
Pressure 1017 hPa
Elevation 189
METAR KAQR 220655Z AUTO 06005KT 10SM BKN009 OVC020 20/20 A3003 RMK AO2 LTG DSNT S
Observed Flight Rules
Sep-22 @ 06:55 UTC
(27 minutes ago)
IFR
Wind Visibility
60° at 5 knots 10 miles
Clouds
Temperature Dewpoint
20°C / 68°F 20°C / 68°F
Humidity Altimeter Pressure
100% 30.03" Hg 1017 hPa